Terminal Aerodrome Forecast
Issued by NWS Jackson, MS

Home | Current Version | Previous Version | Text Only | Print | Product List | Glossary On
Versions: 1 2 3 4 5 6 7 8 9 10 11 12 13 14
000
FTUS44 KJAN 262320
TAFMEI
TAF
KMEI 262320Z 2700/2724 19011KT P6SM FEW045 SCT060
     FM270800 00000KT 4SM BR OVC015
     FM271400 17007KT P6SM OVC050
     FM271700 17011G17KT P6SM OVC250=

USA.gov is the U.S. government's official web portal to all federal, state and local government web resources and services.